Time;durP1;ratioP1;P1;durP2;ratioP2;P2;SDS_P1;SDS_P2;PMS_P1;PMS_P2;Temp;Humidity;BMP_temperature;BMP_pressure;BME280_temperature;BME280_humidity;BME280_pressure;Samples;Min_cycle;Max_cycle;Signal;HPM_P1;HPM_P2
2021/04/19 00:01:44;;;;;;;15.90;14.30;;;11.50;99.90;;;;;;5014935;28;20245;-73
2021/04/19 00:04:10;;;;;;;15.13;13.53;;;11.50;99.90;;;;;;5015851;28;20180;-73
2021/04/19 00:06:37;;;;;;;14.83;13.23;;;11.40;99.90;;;;;;5016397;28;20492;-73
2021/04/19 00:09:03;;;;;;;16.50;14.80;;;11.40;99.90;;;;;;5015879;28;20174;-74
2021/04/19 00:11:29;;;;;;;14.83;13.23;;;11.30;99.90;;;;;;5016172;28;20414;-73
2021/04/19 00:13:54;;;;;;;15.07;13.57;;;11.30;99.90;;;;;;5015967;28;20481;-74
2021/04/19 00:16:20;;;;;;;14.70;13.30;;;11.20;99.90;;;;;;5015659;28;20645;-74
2021/04/19 00:18:45;;;;;;;13.97;12.37;;;11.20;99.90;;;;;;5014655;28;20566;-74
2021/04/19 00:21:11;;;;;;;14.67;12.90;;;11.10;99.90;;;;;;5016920;28;20499;-74
2021/04/19 00:23:36;;;;;;;13.57;12.27;;;11.00;99.90;;;;;;5015887;28;20250;-73
2021/04/19 00:26:02;;;;;;;15.00;13.07;;;11.00;99.90;;;;;;5015809;28;20227;-74
2021/04/19 00:28:27;;;;;;;16.33;14.63;;;10.90;99.90;;;;;;5016068;28;20610;-74
2021/04/19 00:30:53;;;;;;;16.23;13.87;;;10.90;99.90;;;;;;5016400;28;20182;-73
2021/04/19 00:33:19;;;;;;;15.10;13.50;;;10.90;99.90;;;;;;5014154;28;20296;-73
2021/04/19 00:35:44;;;;;;;15.17;13.57;;;11.00;99.90;;;;;;5015376;28;20206;-74
2021/04/19 00:38:10;;;;;;;17.60;14.07;;;11.00;99.90;;;;;;5014016;28;20262;-74
2021/04/19 00:40:37;;;;;;;16.17;14.40;;;11.00;99.90;;;;;;5015855;28;20160;-74
2021/04/19 00:43:03;;;;;;;14.63;13.20;;;11.00;99.90;;;;;;5014353;28;20592;-74
2021/04/19 00:45:29;;;;;;;14.70;13.20;;;11.00;99.90;;;;;;5014646;28;20469;-74
2021/04/19 00:47:54;;;;;;;15.63;13.20;;;10.90;99.90;;;;;;5015061;28;20446;-73
2021/04/19 00:50:26;;;;;;;20.60;14.20;;;10.90;99.90;;;;;;5014376;28;20262;-73
2021/04/19 00:52:53;;;;;;;14.50;13.10;;;10.90;99.90;;;;;;5015196;28;20207;-74
2021/04/19 00:55:19;;;;;;;15.10;13.50;;;10.80;99.90;;;;;;5014249;28;20419;-74
2021/04/19 00:57:45;;;;;;;13.73;12.32;;;10.80;99.90;;;;;;5015053;28;20445;-74
2021/04/19 01:00:18;;;;;;;12.70;11.60;;;10.80;99.90;;;;;;5015331;28;20176;-74
2021/04/19 01:02:43;;;;;;;14.17;12.77;;;10.70;99.90;;;;;;5013742;28;20823;-73
2021/04/19 01:05:15;;;;;;;12.80;11.50;;;10.70;99.90;;;;;;5015732;28;20481;-74
2021/04/19 01:07:40;;;;;;;13.60;12.13;;;10.80;99.90;;;;;;5014895;28;20528;-73
2021/04/19 01:10:07;;;;;;;14.23;12.83;;;10.80;99.90;;;;;;5013714;28;20572;-73
2021/04/19 01:12:32;;;;;;;13.00;11.70;;;10.90;99.90;;;;;;5014877;28;20175;-74
2021/04/19 01:14:58;;;;;;;14.30;12.50;;;10.90;99.90;;;;;;5014864;28;20765;-73
2021/04/19 01:17:23;;;;;;;13.53;12.23;;;10.90;99.90;;;;;;5012992;28;20622;-73
2021/04/19 01:19:49;;;;;;;14.50;13.00;;;10.90;99.90;;;;;;5013368;28;20361;-74
2021/04/19 01:22:15;;;;;;;13.43;12.00;;;10.90;99.90;;;;;;5014849;28;20243;-73
2021/04/19 01:24:40;;;;;;;15.53;12.80;;;10.80;99.90;;;;;;5013512;28;20489;-73
2021/04/19 01:27:07;;;;;;;13.13;11.70;;;10.90;99.90;;;;;;5014979;28;20252;-74
2021/04/19 01:29:32;;;;;;;13.97;12.40;;;10.90;99.90;;;;;;5013619;28;20187;-73
2021/04/19 01:31:58;;;;;;;12.83;11.53;;;11.00;99.90;;;;;;5014558;28;20415;-73
2021/04/19 01:34:24;;;;;;;13.07;11.77;;;11.00;99.90;;;;;;5013439;28;20202;-74
2021/04/19 01:36:50;;;;;;;13.13;11.70;;;11.10;99.90;;;;;;5016384;28;20485;-73
2021/04/19 01:39:17;;;;;;;14.00;12.50;;;11.00;99.90;;;;;;5018662;28;20391;-74
2021/04/19 01:41:45;;;;;;;12.37;11.00;;;11.00;99.90;;;;;;5017400;28;20419;-73
2021/04/19 01:44:11;;;;;;;14.10;12.07;;;11.00;99.90;;;;;;5014795;28;20844;-74
2021/04/19 01:46:37;;;;;;;13.93;12.27;;;11.00;99.90;;;;;;5014498;28;20446;-73
2021/04/19 01:49:10;;;;;;;13.43;12.07;;;11.00;99.90;;;;;;5015096;28;20746;-73
2021/04/19 01:51:35;;;;;;;13.13;11.83;;;11.00;99.90;;;;;;5014087;28;20450;-73
2021/04/19 01:54:01;;;;;;;13.77;12.30;;;11.10;99.90;;;;;;5014486;28;20456;-73
2021/04/19 01:56:26;;;;;;;12.57;11.27;;;11.10;99.90;;;;;;5013138;28;20178;-73
2021/04/19 01:58:52;;;;;;;13.70;12.30;;;11.10;99.90;;;;;;5014945;28;20178;-73
2021/04/19 02:01:17;;;;;;;13.00;11.80;;;11.20;99.90;;;;;;5014744;28;20206;-74
2021/04/19 02:03:51;;;;;;;14.10;12.63;;;11.20;99.90;;;;;;5012992;28;20585;-73
2021/04/19 02:06:43;;;;;;;13.53;12.13;;;11.20;99.90;;;;;;5014393;28;20501;-73
2021/04/19 02:09:20;;;;;;;13.33;11.93;;;11.20;99.90;;;;;;5010829;28;20441;-73
2021/04/19 02:12:23;;;;;;;14.53;13.13;;;11.20;99.90;;;;;;5013600;28;20411;-73
2021/04/19 02:14:55;;;;;;;13.23;12.03;;;11.30;99.90;;;;;;5014106;28;20524;-73
2021/04/19 02:17:54;;;;;;;14.60;13.20;;;11.20;99.90;;;;;;5014130;28;20433;-73
2021/04/19 02:20:42;;;;;;;16.53;14.83;;;11.20;99.90;;;;;;5014225;28;20787;-73
2021/04/19 02:23:20;;;;;;;18.93;15.30;;;11.20;99.90;;;;;;5014094;28;20403;-73
2021/04/19 02:25:49;;;;;;;16.00;14.30;;;11.10;99.90;;;;;;5013418;28;20466;-73
2021/04/19 02:28:24;;;;;;;18.17;16.30;;;11.10;99.90;;;;;;5015734;28;20429;-73
2021/04/19 02:30:53;;;;;;;18.50;16.60;;;11.00;99.90;;;;;;5018763;28;20985;-73
2021/04/19 02:33:21;;;;;;;18.47;16.57;;;10.90;99.90;;;;;;5018111;28;20453;-73
2021/04/19 02:35:47;;;;;;;21.10;15.87;;;10.90;99.90;;;;;;5017509;28;20438;-72
2021/04/19 02:38:19;;;;;;;18.10;16.37;;;10.80;99.90;;;;;;5017855;28;20480;-71
2021/04/19 02:40:46;;;;;;;19.30;16.50;;;10.80;99.90;;;;;;5017890;28;20422;-72
2021/04/19 02:43:12;;;;;;;17.77;16.07;;;10.90;99.90;;;;;;5017852;28;20421;-73
2021/04/19 02:45:38;;;;;;;18.63;15.90;;;10.90;99.90;;;;;;5017346;28;20473;-73
2021/04/19 02:48:06;;;;;;;22.90;17.93;;;10.90;99.90;;;;;;5018135;28;20438;-73
2021/04/19 02:50:32;;;;;;;20.10;17.63;;;10.90;99.90;;;;;;5017581;28;20430;-73
2021/04/19 02:52:59;;;;;;;20.23;18.03;;;10.90;99.90;;;;;;5017203;28;20461;-73
2021/04/19 02:55:28;;;;;;;19.47;17.37;;;10.90;99.90;;;;;;5017836;28;20410;-74
2021/04/19 02:58:03;;;;;;;20.30;18.20;;;10.90;99.90;;;;;;5015216;28;20445;-73
2021/04/19 03:00:34;;;;;;;22.50;18.40;;;10.90;99.90;;;;;;5017855;28;20398;-74
2021/04/19 03:03:05;;;;;;;20.80;18.63;;;10.90;99.90;;;;;;5016947;28;20417;-73
2021/04/19 03:05:33;;;;;;;20.97;18.17;;;10.80;99.90;;;;;;5017695;28;20926;-73
2021/04/19 03:08:03;;;;;;;21.33;18.97;;;10.70;99.90;;;;;;5016858;28;20488;-73
2021/04/19 03:10:33;;;;;;;21.07;18.77;;;10.70;99.90;;;;;;5016824;28;20868;-73
2021/04/19 03:13:02;;;;;;;20.23;18.10;;;10.70;99.90;;;;;;5018130;28;20494;-73
2021/04/19 03:15:35;;;;;;;20.23;18.23;;;10.60;99.90;;;;;;5020281;28;20481;-72
2021/04/19 03:18:03;;;;;;;21.60;19.40;;;10.60;99.90;;;;;;5018387;28;20852;-72
2021/04/19 03:20:42;;;;;;;22.17;19.80;;;10.60;99.90;;;;;;5017748;28;20760;-73
2021/04/19 03:23:08;;;;;;;22.70;19.87;;;10.50;99.90;;;;;;5018132;28;20417;-73
2021/04/19 03:25:35;;;;;;;21.20;18.90;;;10.50;99.90;;;;;;5017733;28;20819;-72
2021/04/19 03:28:01;;;;;;;22.40;19.17;;;10.50;99.90;;;;;;5016871;28;20500;-72
2021/04/19 03:30:27;;;;;;;21.87;19.20;;;10.50;99.90;;;;;;5017232;28;20427;-72
2021/04/19 03:32:55;;;;;;;21.80;19.50;;;10.60;99.90;;;;;;5017021;28;20472;-73
2021/04/19 03:35:25;;;;;;;20.50;18.30;;;10.60;99.90;;;;;;5017419;28;20415;-73
2021/04/19 03:37:52;;;;;;;22.50;19.57;;;10.60;99.90;;;;;;5016792;28;20453;-73
2021/04/19 03:40:27;;;;;;;21.93;19.63;;;10.60;99.90;;;;;;5015604;28;20454;-73
2021/04/19 03:43:04;;;;;;;23.07;19.83;;;10.60;99.90;;;;;;5016824;28;20438;-73
2021/04/19 03:45:34;;;;;;;22.60;20.27;;;10.50;99.90;;;;;;5017286;28;20410;-73
2021/04/19 03:48:03;;;;;;;23.33;20.90;;;10.40;99.90;;;;;;5017233;28;20732;-73
2021/04/19 03:50:32;;;;;;;22.13;19.73;;;10.30;99.90;;;;;;5016326;28;20429;-73
2021/04/19 03:52:59;;;;;;;23.37;20.90;;;10.20;99.90;;;;;;5015397;28;20827;-73
2021/04/19 03:55:27;;;;;;;21.67;19.47;;;10.30;99.90;;;;;;5016257;28;20421;-75
2021/04/19 03:57:54;;;;;;;24.40;21.80;;;10.40;99.90;;;;;;5006238;28;20462;-73
2021/04/19 04:00:21;;;;;;;25.43;21.00;;;10.40;99.90;;;;;;5008304;28;20430;-73
2021/04/19 04:03:08;;;;;;;23.53;19.97;;;10.40;99.90;;;;;;5008078;28;20449;-73
2021/04/19 04:05:34;;;;;;;23.10;20.67;;;10.50;99.90;;;;;;4999355;28;20790;-73
2021/04/19 04:08:02;;;;;;;25.10;21.73;;;10.50;99.90;;;;;;5005442;28;20450;-72
2021/04/19 04:10:28;;;;;;;22.07;19.87;;;10.50;99.90;;;;;;4996117;28;20475;-72
2021/04/19 04:12:54;;;;;;;22.10;19.80;;;10.50;99.90;;;;;;4994378;28;20442;-73
2021/04/19 04:15:20;;;;;;;23.23;20.83;;;10.50;99.90;;;;;;5006028;28;20186;-73
2021/04/19 04:17:46;;;;;;;24.40;21.80;;;10.50;99.90;;;;;;5003999;28;20440;-73
2021/04/19 04:20:12;;;;;;;23.63;21.20;;;10.40;99.90;;;;;;4993824;28;20187;-72
2021/04/19 04:22:38;;;;;;;23.30;20.53;;;10.50;99.90;;;;;;5003621;28;20461;-71
2021/04/19 04:25:05;;;;;;;24.80;20.37;;;10.50;99.90;;;;;;5002687;28;20758;-72
2021/04/19 04:27:31;;;;;;;23.10;20.60;;;10.50;99.90;;;;;;4996908;28;20513;-71
2021/04/19 04:29:57;;;;;;;22.67;20.37;;;10.60;99.90;;;;;;5005695;28;20530;-72
2021/04/19 04:32:23;;;;;;;24.50;20.90;;;10.50;99.90;;;;;;5006755;28;20638;-72
2021/04/19 04:34:48;;;;;;;23.00;20.47;;;10.50;99.90;;;;;;5013610;28;20203;-71
2021/04/19 04:37:14;;;;;;;22.77;20.37;;;10.50;99.90;;;;;;5010429;28;20244;-72
2021/04/19 04:39:39;;;;;;;24.20;20.00;;;10.50;99.90;;;;;;5004804;28;20592;-72
2021/04/19 04:42:11;;;;;;;24.87;20.83;;;10.50;99.90;;;;;;5013377;28;20539;-72
2021/04/19 04:44:39;;;;;;;23.90;21.30;;;10.50;99.90;;;;;;4994343;28;20196;-72
2021/04/19 04:47:10;;;;;;;23.37;20.87;;;10.60;99.90;;;;;;5015284;28;20454;-72
2021/04/19 04:49:58;;;;;;;22.87;19.40;;;10.60;99.90;;;;;;5016010;28;20474;-71
2021/04/19 04:52:31;;;;;;;20.83;18.00;;;10.70;99.90;;;;;;5015087;28;20402;-74
2021/04/19 04:54:58;;;;;;;22.50;19.77;;;10.70;99.90;;;;;;4991629;28;20832;-73
2021/04/19 04:57:26;;;;;;;21.90;19.07;;;10.60;99.90;;;;;;4994931;28;20440;-73
2021/04/19 04:59:53;;;;;;;23.90;20.47;;;10.70;99.90;;;;;;4996166;28;20466;-73
2021/04/19 05:02:24;;;;;;;21.47;19.27;;;10.70;99.90;;;;;;4998534;28;20430;-73
2021/04/19 05:04:51;;;;;;;20.10;17.70;;;10.60;99.90;;;;;;5004642;28;20527;-73
2021/04/19 05:07:18;;;;;;;22.13;18.00;;;10.50;99.90;;;;;;4996194;28;20443;-73
2021/04/19 05:09:46;;;;;;;21.33;18.60;;;10.40;99.90;;;;;;4996873;28;20416;-73
2021/04/19 05:12:12;;;;;;;21.10;18.80;;;10.40;99.90;;;;;;4997441;28;20424;-73
2021/04/19 05:14:39;;;;;;;18.83;16.93;;;10.50;99.90;;;;;;4996463;28;20482;-73
2021/04/19 05:17:05;;;;;;;20.53;18.40;;;10.50;99.90;;;;;;4996401;28;20435;-73
2021/04/19 05:19:31;;;;;;;20.10;18.10;;;10.50;99.90;;;;;;4996724;28;20412;-73
2021/04/19 05:21:56;;;;;;;19.10;16.87;;;10.60;99.90;;;;;;4996499;28;20400;-74
2021/04/19 05:24:22;;;;;;;16.93;15.23;;;10.60;99.90;;;;;;4996166;28;20219;-72
2021/04/19 05:26:48;;;;;;;18.40;16.50;;;10.60;99.90;;;;;;4996258;28;20196;-73
2021/04/19 05:29:14;;;;;;;15.83;14.23;;;10.60;99.90;;;;;;5018718;28;20530;-73
2021/04/19 05:31:40;;;;;;;15.10;13.50;;;10.60;99.90;;;;;;5017956;28;20186;-73
2021/04/19 05:34:06;;;;;;;13.63;12.43;;;10.70;99.90;;;;;;5034699;28;20469;-72
2021/04/19 05:36:32;;;;;;;12.00;10.70;;;10.70;99.90;;;;;;5029256;28;20955;-72
2021/04/19 05:38:58;;;;;;;15.37;12.47;;;10.70;99.90;;;;;;5013077;28;20696;-73
2021/04/19 05:41:24;;;;;;;13.33;11.93;;;10.60;99.90;;;;;;5015031;28;20410;-73
2021/04/19 05:43:50;;;;;;;15.10;13.60;;;10.50;99.90;;;;;;5014604;28;20415;-73
2021/04/19 05:46:17;;;;;;;15.53;13.33;;;10.50;99.90;;;;;;5030719;28;20429;-72
2021/04/19 05:48:43;;;;;;;13.93;12.53;;;10.50;99.90;;;;;;5033335;28;20425;-73
2021/04/19 05:51:25;;;;;;;13.10;11.80;;;10.50;99.90;;;;;;5034791;28;20416;-72
2021/04/19 05:53:53;;;;;;;12.97;11.60;;;10.40;99.90;;;;;;5034599;28;20897;-72
2021/04/19 05:56:37;;;;;;;13.07;11.80;;;10.40;99.90;;;;;;5033268;28;20421;-73
2021/04/19 05:59:05;;;;;;;14.80;12.73;;;10.40;99.90;;;;;;5017791;28;20434;-73
2021/04/19 06:01:32;;;;;;;15.13;12.33;;;10.50;99.90;;;;;;4996185;28;20414;-73
2021/04/19 06:04:05;;;;;;;13.53;12.10;;;10.50;99.90;;;;;;5034675;28;20504;-72
2021/04/19 06:06:57;;;;;;;13.30;11.80;;;10.60;99.90;;;;;;5034981;28;20429;-73
2021/04/19 06:09:33;;;;;;;13.20;10.50;;;10.60;99.90;;;;;;5034461;28;20501;-73
2021/04/19 06:12:02;;;;;;;11.27;10.20;;;10.60;99.90;;;;;;5034527;28;20768;-73
2021/04/19 06:14:48;;;;;;;12.50;11.20;;;10.60;99.90;;;;;;5034478;28;20464;-74
2021/04/19 06:17:14;;;;;;;11.57;10.47;;;10.60;99.90;;;;;;5035123;28;20426;-72
2021/04/19 06:19:44;;;;;;;14.00;11.00;;;10.60;99.90;;;;;;5038366;28;20485;-72
2021/04/19 06:22:17;;;;;;;11.63;10.40;;;10.70;99.90;;;;;;5053874;28;20163;-73
2021/04/19 06:24:51;;;;;;;12.77;11.10;;;10.70;99.90;;;;;;5053987;28;20470;-73
2021/04/19 06:27:22;;;;;;;13.90;10.17;;;10.80;99.90;;;;;;5040584;28;20425;-72
2021/04/19 06:29:49;;;;;;;10.03;9.00;;;10.80;99.90;;;;;;5023367;28;20407;-74
2021/04/19 06:32:15;;;;;;;10.97;9.83;;;10.90;99.90;;;;;;5017450;28;20418;-73
2021/04/19 06:34:41;;;;;;;10.83;9.80;;;10.90;99.90;;;;;;5015087;28;20796;-73
2021/04/19 06:37:08;;;;;;;9.93;8.93;;;10.90;99.90;;;;;;5026313;28;20970;-72
2021/04/19 06:39:34;;;;;;;12.10;10.10;;;11.00;99.90;;;;;;5034496;28;20455;-73
2021/04/19 06:42:02;;;;;;;11.07;8.87;;;11.00;99.90;;;;;;5033608;28;20194;-72
2021/04/19 06:44:28;;;;;;;10.60;8.43;;;11.00;99.90;;;;;;5035086;28;20421;-72
2021/04/19 06:46:55;;;;;;;9.00;8.20;;;11.10;99.90;;;;;;5034897;28;20425;-73
2021/04/19 06:49:21;;;;;;;11.30;10.20;;;11.10;99.90;;;;;;5035100;28;20405;-73
2021/04/19 06:51:47;;;;;;;9.77;8.63;;;11.10;99.90;;;;;;5033732;28;20520;-73
2021/04/19 06:54:13;;;;;;;13.43;11.30;;;11.10;99.90;;;;;;5033811;28;20194;-73
2021/04/19 06:56:43;;;;;;;10.70;9.70;;;11.10;99.90;;;;;;5034642;28;20429;-73
2021/04/19 06:59:15;;;;;;;10.20;9.20;;;11.10;99.90;;;;;;5022972;28;20648;-73
2021/04/19 07:01:42;;;;;;;9.50;8.60;;;11.10;99.90;;;;;;5016330;28;20414;-73
2021/04/19 07:04:13;;;;;;;11.03;9.83;;;11.10;99.90;;;;;;5015277;28;20797;-73
2021/04/19 07:06:40;;;;;;;10.70;9.67;;;11.10;99.90;;;;;;5014923;28;20518;-73
2021/04/19 07:09:26;;;;;;;10.97;9.93;;;11.10;99.90;;;;;;5014345;28;20423;-73
2021/04/19 07:12:03;;;;;;;10.40;9.40;;;11.10;99.90;;;;;;5016346;28;20429;-73
2021/04/19 07:14:31;;;;;;;11.57;10.37;;;11.20;99.90;;;;;;5015268;28;20476;-72
2021/04/19 07:16:57;;;;;;;12.90;11.50;;;11.30;99.90;;;;;;5019094;28;20446;-72
2021/04/19 07:19:23;;;;;;;12.30;11.03;;;11.30;99.90;;;;;;5019926;28;20410;-73
2021/04/19 07:21:50;;;;;;;10.87;9.80;;;11.40;99.90;;;;;;5018454;28;20419;-73
2021/04/19 07:24:16;;;;;;;12.50;11.20;;;11.50;99.90;;;;;;5019389;28;20411;-73
2021/04/19 07:26:43;;;;;;;12.57;11.37;;;11.50;99.90;;;;;;5020848;28;20793;-73
2021/04/19 07:29:09;;;;;;;12.53;11.23;;;11.60;99.90;;;;;;5017935;28;20442;-73
2021/04/19 07:31:52;;;;;;;11.97;10.70;;;11.60;99.90;;;;;;5017917;28;20429;-73
2021/04/19 07:34:26;;;;;;;11.00;10.00;;;11.80;99.90;;;;;;5018903;28;20458;-73
2021/04/19 07:37:04;;;;;;;12.10;10.80;;;11.90;99.90;;;;;;5027447;28;20798;-73
2021/04/19 07:39:32;;;;;;;12.17;11.07;;;11.90;99.90;;;;;;5018894;28;20533;-73
2021/04/19 07:41:59;;;;;;;11.20;10.10;;;11.80;99.90;;;;;;5021078;28;20409;-73
2021/04/19 07:44:35;;;;;;;10.90;9.77;;;11.70;99.90;;;;;;5021058;28;20468;-74
2021/04/19 07:47:20;;;;;;;10.27;9.27;;;11.60;99.90;;;;;;5022344;28;20430;-73
2021/04/19 07:50:05;;;;;;;9.17;8.37;;;11.70;99.90;;;;;;5019990;28;20413;-73
2021/04/19 07:52:35;;;;;;;8.53;7.73;;;11.60;99.90;;;;;;5022034;28;20406;-73
2021/04/19 07:55:10;;;;;;;7.53;6.83;;;11.70;99.90;;;;;;5016270;28;20461;-73
2021/04/19 07:57:37;;;;;;;6.90;6.30;;;11.80;99.90;;;;;;5016160;28;20903;-73
2021/04/19 08:00:06;;;;;;;6.07;5.50;;;12.00;99.90;;;;;;5015835;28;20430;-73
2021/04/19 08:02:31;;;;;;;5.90;5.40;;;12.10;99.90;;;;;;5015902;28;20411;-73
2021/04/19 08:04:59;;;;;;;5.30;4.90;;;12.20;99.90;;;;;;5015314;28;20642;-74
2021/04/19 08:07:27;;;;;;;5.50;5.00;;;12.30;99.90;;;;;;5016222;28;20282;-74
2021/04/19 08:10:05;;;;;;;6.10;5.20;;;12.30;99.90;;;;;;5015707;28;20415;-72
2021/04/19 08:12:41;;;;;;;5.10;4.70;;;12.30;99.90;;;;;;5014114;28;20422;-72
2021/04/19 08:15:10;;;;;;;4.70;4.40;;;12.30;99.90;;;;;;5015949;28;20457;-73
2021/04/19 08:17:36;;;;;;;5.07;4.67;;;12.40;99.90;;;;;;5017216;28;20423;-72
2021/04/19 08:20:07;;;;;;;5.33;4.33;;;12.50;99.90;;;;;;5020193;28;20418;-72
2021/04/19 08:22:32;;;;;;;3.93;3.63;;;12.60;99.90;;;;;;5020176;28;20414;-72
2021/04/19 08:25:14;;;;;;;3.80;3.50;;;12.60;99.90;;;;;;5017600;28;20427;-72
2021/04/19 08:27:41;;;;;;;4.50;4.20;;;12.80;99.90;;;;;;5017999;28;20191;-72
2021/04/19 08:30:09;;;;;;;5.50;5.03;;;12.90;99.90;;;;;;5017993;28;20460;-71
2021/04/19 08:32:34;;;;;;;3.70;3.40;;;13.00;99.90;;;;;;5018421;28;20482;-72
2021/04/19 08:35:01;;;;;;;3.47;3.27;;;13.20;99.90;;;;;;5018613;28;20500;-74
2021/04/19 08:37:28;;;;;;;3.73;3.43;;;13.20;99.90;;;;;;5028719;28;20246;-72
2021/04/19 08:39:56;;;;;;;3.00;2.77;;;13.30;99.90;;;;;;5042092;28;20625;-72
2021/04/19 08:42:22;;;;;;;8.63;4.03;;;13.20;99.90;;;;;;5030182;28;20421;-72
2021/04/19 08:44:51;;;;;;;3.80;3.43;;;13.30;99.90;;;;;;5041182;28;20418;-72
2021/04/19 08:47:20;;;;;;;3.00;2.80;;;13.30;99.90;;;;;;5031165;28;20461;-72
2021/04/19 08:49:47;;;;;;;3.60;3.30;;;13.40;99.90;;;;;;5039651;28;20413;-74
2021/04/19 08:52:14;;;;;;;3.10;2.90;;;13.40;99.90;;;;;;5030218;28;20442;-73
2021/04/19 08:54:40;;;;;;;4.00;3.63;;;13.50;99.90;;;;;;5022000;28;20457;-73
2021/04/19 08:57:06;;;;;;;3.03;2.80;;;13.60;99.90;;;;;;5029933;28;20497;-72
2021/04/19 08:59:31;;;;;;;3.07;2.87;;;13.60;99.90;;;;;;5029807;28;20230;-72
2021/04/19 09:01:58;;;;;;;3.50;2.93;;;13.70;99.90;;;;;;5025235;28;20405;-72
2021/04/19 09:04:24;;;;;;;3.17;2.97;;;13.70;99.90;;;;;;5030933;28;21018;-75
2021/04/19 09:06:52;;;;;;;3.40;3.10;;;13.70;99.90;;;;;;5021162;28;20433;-72
2021/04/19 09:09:34;;;;;;;3.00;2.80;;;13.70;99.90;;;;;;5035462;28;20428;-72
2021/04/19 09:12:09;;;;;;;3.30;3.00;;;13.80;99.90;;;;;;5003185;28;20830;-73
2021/04/19 09:14:36;;;;;;;3.07;2.87;;;13.80;99.90;;;;;;5019278;28;20457;-73
2021/04/19 09:17:03;;;;;;;3.30;3.03;;;13.80;99.90;;;;;;5025989;28;20430;-72
2021/04/19 09:19:35;;;;;;;3.07;2.87;;;13.70;99.90;;;;;;5034740;28;20504;-73
2021/04/19 09:22:08;;;;;;;3.07;2.87;;;13.80;99.90;;;;;;4997060;28;20404;-73
2021/04/19 09:24:52;;;;;;;3.00;2.80;;;13.90;99.90;;;;;;5012159;28;20441;-73
2021/04/19 09:27:44;;;;;;;3.40;3.07;;;14.00;99.90;;;;;;5022679;28;20427;-73
2021/04/19 09:30:22;;;;;;;3.23;2.97;;;14.20;99.80;;;;;;5025066;28;20420;-74
2021/04/19 09:33:08;;;;;;;4.20;3.90;;;14.20;99.50;;;;;;5027426;28;20410;-73
2021/04/19 09:35:40;;;;;;;4.10;3.30;;;14.30;99.40;;;;;;5030391;28;20444;-74
2021/04/19 09:38:10;;;;;;;5.30;3.80;;;14.30;99.40;;;;;;5029135;28;20521;-73
2021/04/19 09:40:51;;;;;;;3.90;3.60;;;14.40;99.10;;;;;;5023961;28;20409;-73
2021/04/19 09:43:35;;;;;;;4.63;3.93;;;14.20;99.50;;;;;;5019701;28;20446;-72
2021/04/19 09:46:17;;;;;;;5.40;4.30;;;14.20;99.70;;;;;;5008290;28;20899;-72
2021/04/19 09:48:53;;;;;;;3.93;3.63;;;13.90;99.90;;;;;;5024423;28;20411;-73
2021/04/19 09:51:29;;;;;;;4.60;4.20;;;13.80;99.90;;;;;;5029072;28;20412;-74
2021/04/19 09:53:57;;;;;;;4.80;4.40;;;14.00;99.90;;;;;;5017598;28;20491;-73
2021/04/19 09:56:31;;;;;;;4.13;3.73;;;14.00;99.80;;;;;;5026915;28;20418;-73
2021/04/19 09:58:57;;;;;;;4.97;4.57;;;14.20;99.60;;;;;;5026439;28;20430;-73
2021/04/19 10:01:24;;;;;;;4.73;4.33;;;14.20;99.40;;;;;;5020119;28;20422;-73
2021/04/19 10:03:51;;;;;;;5.00;4.50;;;14.00;99.70;;;;;;5031579;28;20505;-73
2021/04/19 10:06:31;;;;;;;4.63;4.30;;;13.90;99.90;;;;;;5021649;28;20409;-73
2021/04/19 10:09:00;;;;;;;4.40;4.00;;;13.70;99.90;;;;;;5022239;28;20418;-73
2021/04/19 10:11:29;;;;;;;6.07;4.63;;;13.70;99.90;;;;;;5017637;28;20993;-74
2021/04/19 10:13:56;;;;;;;4.73;4.33;;;13.70;99.90;;;;;;5028874;28;20457;-73
2021/04/19 10:16:23;;;;;;;4.60;3.80;;;13.70;99.90;;;;;;5016457;28;20784;-73
2021/04/19 10:18:50;;;;;;;4.53;4.10;;;13.60;99.90;;;;;;5031766;28;20441;-73
2021/04/19 10:21:25;;;;;;;4.13;3.83;;;13.50;99.70;;;;;;5022977;28;20476;-73
2021/04/19 10:23:51;;;;;;;4.67;4.20;;;13.40;99.40;;;;;;5021952;28;20417;-73
2021/04/19 10:26:17;;;;;;;4.80;4.40;;;13.30;99.90;;;;;;5023429;28;20426;-73
2021/04/19 10:28:45;;;;;;;5.07;4.67;;;13.30;99.90;;;;;;5031646;28;20411;-73
2021/04/19 10:31:20;;;;;;;4.50;4.00;;;13.30;99.90;;;;;;5021138;28;20421;-73
2021/04/19 10:33:48;;;;;;;4.57;4.00;;;13.30;99.90;;;;;;5035293;28;20460;-73
2021/04/19 10:36:15;;;;;;;4.17;3.77;;;13.10;99.80;;;;;;5022487;28;20508;-73
2021/04/19 10:38:41;;;;;;;5.13;4.63;;;13.10;99.30;;;;;;5016181;28;20554;-73
2021/04/19 10:41:07;;;;;;;4.90;4.50;;;13.10;99.60;;;;;;5027402;28;20410;-72
2021/04/19 10:43:33;;;;;;;4.53;3.90;;;13.10;99.40;;;;;;5022299;28;20422;-72
2021/04/19 10:45:59;;;;;;;4.63;3.83;;;13.10;99.00;;;;;;5020053;28;20446;-73
2021/04/19 10:48:27;;;;;;;5.90;4.63;;;13.20;98.60;;;;;;5030450;28;20277;-73
2021/04/19 10:51:14;;;;;;;5.33;4.20;;;13.20;98.70;;;;;;5022870;28;20520;-74
2021/04/19 10:53:41;;;;;;;5.00;4.43;;;13.20;98.90;;;;;;5033632;28;20564;-74
2021/04/19 10:56:08;;;;;;;5.10;4.60;;;13.30;98.80;;;;;;5023028;28;20472;-74
2021/04/19 10:58:36;;;;;;;4.70;4.37;;;13.40;98.90;;;;;;5034172;28;20528;-74
2021/04/19 11:01:03;;;;;;;4.57;4.17;;;13.60;98.80;;;;;;5022329;28;20417;-74
2021/04/19 11:03:36;;;;;;;5.70;4.67;;;13.60;98.30;;;;;;5034515;28;20452;-73
2021/04/19 11:06:09;;;;;;;4.83;4.40;;;13.70;98.30;;;;;;5023584;28;20418;-74
2021/04/19 11:08:53;;;;;;;5.70;4.93;;;13.80;98.50;;;;;;5033659;28;20519;-73
2021/04/19 11:11:29;;;;;;;6.40;5.63;;;13.90;98.20;;;;;;5025482;28;20965;-75
2021/04/19 11:14:06;;;;;;;5.53;4.47;;;13.90;98.00;;;;;;5024220;28;20454;-74
2021/04/19 11:16:32;;;;;;;4.90;4.50;;;14.00;97.60;;;;;;5033413;28;20445;-73
2021/04/19 11:18:58;;;;;;;5.40;4.90;;;14.00;97.40;;;;;;5021836;28;20908;-73
2021/04/19 11:21:41;;;;;;;5.17;4.67;;;14.30;97.20;;;;;;5028567;28;20697;-74
2021/04/19 11:24:11;;;;;;;5.77;4.80;;;14.40;97.10;;;;;;5031153;28;20949;-74
2021/04/19 11:26:38;;;;;;;5.70;5.10;;;14.50;97.00;;;;;;5030230;28;20930;-73
2021/04/19 11:29:04;;;;;;;5.80;4.60;;;14.70;96.80;;;;;;5023243;28;20420;-74
2021/04/19 11:31:42;;;;;;;6.67;4.63;;;14.80;96.60;;;;;;5027493;28;20418;-74
2021/04/19 11:34:16;;;;;;;5.30;4.90;;;14.80;96.20;;;;;;5031112;28;20460;-73
2021/04/19 11:36:43;;;;;;;4.73;4.23;;;15.00;96.30;;;;;;5023761;28;20442;-73
2021/04/19 11:39:20;;;;;;;6.13;5.53;;;15.00;96.00;;;;;;5021004;28;20456;-73
2021/04/19 11:41:47;;;;;;;8.40;7.60;;;15.10;95.80;;;;;;5023987;28;20418;-73
2021/04/19 11:44:14;;;;;;;9.40;8.50;;;15.00;98.00;;;;;;5015744;28;20450;-73
2021/04/19 11:46:45;;;;;;;11.30;9.03;;;14.90;98.80;;;;;;5023456;28;20521;-73
2021/04/19 11:49:15;;;;;;;10.03;7.30;;;14.70;99.30;;;;;;5029656;28;20423;-73
2021/04/19 11:51:41;;;;;;;9.77;8.33;;;14.70;99.50;;;;;;5027665;28;20406;-73
2021/04/19 11:54:07;;;;;;;8.27;6.87;;;14.30;99.40;;;;;;5020131;28;20465;-73
2021/04/19 11:56:33;;;;;;;10.43;7.50;;;14.30;99.70;;;;;;5032904;28;20433;-73
2021/04/19 11:58:58;;;;;;;7.70;6.80;;;14.30;99.60;;;;;;5020820;28;20436;-73
2021/04/19 12:01:24;;;;;;;7.43;6.47;;;14.20;98.90;;;;;;5027099;28;20183;-73
2021/04/19 12:03:51;;;;;;;11.57;6.70;;;13.90;99.00;;;;;;5017535;28;20513;-73
2021/04/19 12:06:17;;;;;;;8.40;6.63;;;13.80;99.40;;;;;;5033900;28;20175;-74
2021/04/19 12:08:44;;;;;;;24.07;9.83;;;13.90;99.40;;;;;;5034066;28;20422;-73
2021/04/19 12:11:12;;;;;;;24.37;9.70;;;13.90;99.90;;;;;;5039558;28;20418;-73
2021/04/19 12:13:38;;;;;;;13.63;9.87;;;13.90;99.90;;;;;;5032285;28;20469;-73
2021/04/19 12:16:04;;;;;;;13.53;9.03;;;13.90;99.90;;;;;;5018688;28;20904;-73
2021/04/19 12:18:32;;;;;;;12.00;8.40;;;14.00;99.90;;;;;;5020090;28;20458;-73
2021/04/19 12:20:58;;;;;;;11.97;10.03;;;14.10;99.90;;;;;;5032584;28;20237;-73
2021/04/19 12:23:24;;;;;;;11.47;9.63;;;14.10;99.90;;;;;;5026082;28;20425;-74
2021/04/19 12:25:53;;;;;;;29.33;11.00;;;14.10;99.90;;;;;;5025202;28;20502;-74
2021/04/19 12:28:20;;;;;;;18.23;10.30;;;14.10;99.90;;;;;;5033593;28;20602;-74
2021/04/19 12:30:45;;;;;;;17.73;10.40;;;14.10;99.90;;;;;;5019096;28;20425;-72
2021/04/19 12:33:11;;;;;;;26.93;11.00;;;14.10;99.90;;;;;;5029546;28;20423;-72
2021/04/19 12:35:37;;;;;;;16.97;11.03;;;14.00;99.90;;;;;;5029369;28;20417;-73
2021/04/19 12:38:03;;;;;;;9.70;8.70;;;14.10;99.90;;;;;;5040470;28;20262;-73
2021/04/19 12:40:29;;;;;;;10.70;9.60;;;14.00;99.90;;;;;;5036175;28;20199;-73
2021/04/19 12:42:56;;;;;;;13.70;8.63;;;14.00;99.90;;;;;;5048552;28;20172;-73
2021/04/19 12:45:24;;;;;;;9.43;7.80;;;14.00;99.90;;;;;;5023412;28;20911;-73
2021/04/19 12:47:53;;;;;;;7.60;6.63;;;14.00;99.90;;;;;;5030225;28;20437;-73